sensor_id;sensor_type;location;lat;lon;timestamp;P1;durP1;ratioP1;P2;durP2;ratioP2
3867;SDS011;1949;48.152;11.528;2022-12-29T00:02:14;1.93;;;1.23;;
3867;SDS011;1949;48.152;11.528;2022-12-29T00:04:53;2.43;;;1.17;;
3867;SDS011;1949;48.152;11.528;2022-12-29T00:07:20;0.80;;;0.80;;
3867;SDS011;1949;48.152;11.528;2022-12-29T00:09:46;1.80;;;1.20;;
3867;SDS011;1949;48.152;11.528;2022-12-29T00:12:12;1.97;;;1.00;;
3867;SDS011;1949;48.152;11.528;2022-12-29T00:14:39;3.33;;;1.37;;
3867;SDS011;1949;48.152;11.528;2022-12-29T00:17:24;2.60;;;1.30;;
3867;SDS011;1949;48.152;11.528;2022-12-29T00:19:49;3.53;;;1.37;;
3867;SDS011;1949;48.152;11.528;2022-12-29T00:22:33;0.80;;;0.80;;
3867;SDS011;1949;48.152;11.528;2022-12-29T00:25:18;1.20;;;1.10;;
3867;SDS011;1949;48.152;11.528;2022-12-29T00:28:02;1.03;;;0.93;;
3867;SDS011;1949;48.152;11.528;2022-12-29T00:30:46;1.70;;;0.90;;
3867;SDS011;1949;48.152;11.528;2022-12-29T00:33:31;1.00;;;0.77;;
3867;SDS011;1949;48.152;11.528;2022-12-29T00:39:10;1.50;;;1.13;;
3867;SDS011;1949;48.152;11.528;2022-12-29T00:42:02;1.57;;;0.90;;
3867;SDS011;1949;48.152;11.528;2022-12-29T00:45:04;0.80;;;0.80;;
3867;SDS011;1949;48.152;11.528;2022-12-29T00:47:30;1.60;;;0.93;;
3867;SDS011;1949;48.152;11.528;2022-12-29T00:49:56;0.90;;;0.67;;
3867;SDS011;1949;48.152;11.528;2022-12-29T00:52:22;1.03;;;0.70;;
3867;SDS011;1949;48.152;11.528;2022-12-29T00:54:48;2.10;;;1.10;;
3867;SDS011;1949;48.152;11.528;2022-12-29T00:57:14;1.23;;;1.10;;
3867;SDS011;1949;48.152;11.528;2022-12-29T00:59:40;1.00;;;0.80;;
3867;SDS011;1949;48.152;11.528;2022-12-29T01:02:07;1.00;;;0.57;;
3867;SDS011;1949;48.152;11.528;2022-12-29T01:04:34;1.40;;;0.83;;
3867;SDS011;1949;48.152;11.528;2022-12-29T01:07:00;1.33;;;1.00;;
3867;SDS011;1949;48.152;11.528;2022-12-29T01:09:26;0.73;;;0.73;;
3867;SDS011;1949;48.152;11.528;2022-12-29T01:12:10;1.47;;;0.70;;
3867;SDS011;1949;48.152;11.528;2022-12-29T01:14:37;4.30;;;1.80;;
3867;SDS011;1949;48.152;11.528;2022-12-29T01:17:03;1.53;;;1.13;;
3867;SDS011;1949;48.152;11.528;2022-12-29T01:19:30;1.80;;;1.20;;
3867;SDS011;1949;48.152;11.528;2022-12-29T01:21:56;2.13;;;1.30;;
3867;SDS011;1949;48.152;11.528;2022-12-29T01:24:22;2.20;;;1.07;;
3867;SDS011;1949;48.152;11.528;2022-12-29T01:26:49;1.13;;;0.80;;
3867;SDS011;1949;48.152;11.528;2022-12-29T01:29:15;1.33;;;0.90;;
3867;SDS011;1949;48.152;11.528;2022-12-29T01:31:41;1.90;;;0.93;;
3867;SDS011;1949;48.152;11.528;2022-12-29T01:34:06;1.20;;;1.00;;
3867;SDS011;1949;48.152;11.528;2022-12-29T01:36:32;3.67;;;1.20;;
3867;SDS011;1949;48.152;11.528;2022-12-29T01:38:58;2.77;;;0.87;;
3867;SDS011;1949;48.152;11.528;2022-12-29T01:41:24;1.63;;;1.03;;
3867;SDS011;1949;48.152;11.528;2022-12-29T01:43:51;1.03;;;0.93;;
3867;SDS011;1949;48.152;11.528;2022-12-29T01:49:17;1.10;;;0.80;;
3867;SDS011;1949;48.152;11.528;2022-12-29T01:51:47;2.40;;;1.27;;
3867;SDS011;1949;48.152;11.528;2022-12-29T01:54:22;1.10;;;0.80;;
3867;SDS011;1949;48.152;11.528;2022-12-29T01:56:59;3.50;;;0.97;;
3867;SDS011;1949;48.152;11.528;2022-12-29T01:59:30;1.53;;;1.07;;
3867;SDS011;1949;48.152;11.528;2022-12-29T02:02:00;0.90;;;0.90;;
3867;SDS011;1949;48.152;11.528;2022-12-29T02:04:29;1.17;;;0.80;;
3867;SDS011;1949;48.152;11.528;2022-12-29T02:06:58;1.57;;;1.30;;
3867;SDS011;1949;48.152;11.528;2022-12-29T02:09:31;0.80;;;0.70;;
3867;SDS011;1949;48.152;11.528;2022-12-29T02:11:56;0.70;;;0.70;;
3867;SDS011;1949;48.152;11.528;2022-12-29T02:14:23;2.17;;;1.20;;
3867;SDS011;1949;48.152;11.528;2022-12-29T02:30:53;0.70;;;0.70;;
3867;SDS011;1949;48.152;11.528;2022-12-29T02:46:53;0.60;;;0.60;;
3867;SDS011;1949;48.152;11.528;2022-12-29T02:52:02;1.00;;;0.80;;
3867;SDS011;1949;48.152;11.528;2022-12-29T02:54:37;1.97;;;0.83;;
3867;SDS011;1949;48.152;11.528;2022-12-29T02:57:14;1.60;;;1.00;;
3867;SDS011;1949;48.152;11.528;2022-12-29T02:59:56;1.67;;;1.00;;
3867;SDS011;1949;48.152;11.528;2022-12-29T03:13:36;1.77;;;0.70;;
3867;SDS011;1949;48.152;11.528;2022-12-29T03:24:41;0.90;;;0.70;;
3867;SDS011;1949;48.152;11.528;2022-12-29T03:29:57;1.80;;;0.87;;
3867;SDS011;1949;48.152;11.528;2022-12-29T03:32:27;0.67;;;0.67;;
3867;SDS011;1949;48.152;11.528;2022-12-29T03:34:57;1.10;;;0.70;;
3867;SDS011;1949;48.152;11.528;2022-12-29T03:37:25;3.33;;;1.03;;
3867;SDS011;1949;48.152;11.528;2022-12-29T03:39:55;1.50;;;0.87;;
3867;SDS011;1949;48.152;11.528;2022-12-29T03:42:25;1.10;;;0.90;;
3867;SDS011;1949;48.152;11.528;2022-12-29T03:44:55;0.70;;;0.70;;
3867;SDS011;1949;48.152;11.528;2022-12-29T03:47:22;0.93;;;0.77;;
3867;SDS011;1949;48.152;11.528;2022-12-29T03:49:49;1.17;;;0.80;;
3867;SDS011;1949;48.152;11.528;2022-12-29T03:52:15;7.10;;;1.10;;
3867;SDS011;1949;48.152;11.528;2022-12-29T03:54:41;2.20;;;0.93;;
3867;SDS011;1949;48.152;11.528;2022-12-29T03:57:10;0.90;;;0.80;;
3867;SDS011;1949;48.152;11.528;2022-12-29T03:59:36;1.83;;;0.87;;
3867;SDS011;1949;48.152;11.528;2022-12-29T04:04:30;1.13;;;0.80;;
3867;SDS011;1949;48.152;11.528;2022-12-29T04:06:57;2.37;;;0.90;;
3867;SDS011;1949;48.152;11.528;2022-12-29T04:09:22;0.70;;;0.60;;
3867;SDS011;1949;48.152;11.528;2022-12-29T04:11:49;7.63;;;0.70;;
3867;SDS011;1949;48.152;11.528;2022-12-29T04:14:15;1.33;;;0.90;;
3867;SDS011;1949;48.152;11.528;2022-12-29T04:16:42;0.90;;;0.60;;
3867;SDS011;1949;48.152;11.528;2022-12-29T04:19:07;1.70;;;0.90;;
3867;SDS011;1949;48.152;11.528;2022-12-29T04:21:33;0.90;;;0.80;;
3867;SDS011;1949;48.152;11.528;2022-12-29T04:23:59;0.90;;;0.60;;
3867;SDS011;1949;48.152;11.528;2022-12-29T04:26:25;0.90;;;0.70;;
3867;SDS011;1949;48.152;11.528;2022-12-29T04:28:53;0.80;;;0.80;;
3867;SDS011;1949;48.152;11.528;2022-12-29T04:31:18;1.20;;;0.70;;
3867;SDS011;1949;48.152;11.528;2022-12-29T04:33:45;1.00;;;0.77;;
3867;SDS011;1949;48.152;11.528;2022-12-29T04:36:15;0.70;;;0.50;;
3867;SDS011;1949;48.152;11.528;2022-12-29T04:38:41;1.60;;;1.03;;
3867;SDS011;1949;48.152;11.528;2022-12-29T04:41:06;1.37;;;0.87;;
3867;SDS011;1949;48.152;11.528;2022-12-29T04:43:33;1.70;;;1.20;;
3867;SDS011;1949;48.152;11.528;2022-12-29T04:45:59;1.33;;;1.00;;
3867;SDS011;1949;48.152;11.528;2022-12-29T04:48:26;1.20;;;0.93;;
3867;SDS011;1949;48.152;11.528;2022-12-29T04:50:52;1.20;;;1.07;;
3867;SDS011;1949;48.152;11.528;2022-12-29T04:53:20;2.60;;;1.13;;
3867;SDS011;1949;48.152;11.528;2022-12-29T04:55:49;1.00;;;0.83;;
3867;SDS011;1949;48.152;11.528;2022-12-29T04:58:18;2.10;;;0.80;;
3867;SDS011;1949;48.152;11.528;2022-12-29T05:00:44;1.10;;;0.90;;
3867;SDS011;1949;48.152;11.528;2022-12-29T05:05:39;1.23;;;0.90;;
3867;SDS011;1949;48.152;11.528;2022-12-29T05:08:06;1.47;;;0.80;;
3867;SDS011;1949;48.152;11.528;2022-12-29T05:10:31;3.63;;;1.30;;
3867;SDS011;1949;48.152;11.528;2022-12-29T05:12:57;2.13;;;1.30;;
3867;SDS011;1949;48.152;11.528;2022-12-29T05:15:23;2.23;;;1.40;;
3867;SDS011;1949;48.152;11.528;2022-12-29T05:17:49;3.23;;;1.63;;
3867;SDS011;1949;48.152;11.528;2022-12-29T05:20:14;1.90;;;1.30;;
3867;SDS011;1949;48.152;11.528;2022-12-29T05:22:40;1.10;;;1.00;;
3867;SDS011;1949;48.152;11.528;2022-12-29T05:25:06;3.07;;;1.47;;
3867;SDS011;1949;48.152;11.528;2022-12-29T05:27:32;1.97;;;1.43;;
3867;SDS011;1949;48.152;11.528;2022-12-29T05:29:58;3.17;;;1.80;;
3867;SDS011;1949;48.152;11.528;2022-12-29T05:32:23;0.90;;;0.90;;
3867;SDS011;1949;48.152;11.528;2022-12-29T05:34:50;1.30;;;1.20;;
3867;SDS011;1949;48.152;11.528;2022-12-29T05:37:16;1.57;;;0.90;;
3867;SDS011;1949;48.152;11.528;2022-12-29T05:39:41;1.40;;;1.17;;
3867;SDS011;1949;48.152;11.528;2022-12-29T05:42:07;1.40;;;1.00;;
3867;SDS011;1949;48.152;11.528;2022-12-29T05:44:33;3.73;;;1.23;;
3867;SDS011;1949;48.152;11.528;2022-12-29T05:46:58;2.00;;;1.27;;
3867;SDS011;1949;48.152;11.528;2022-12-29T05:49:24;2.90;;;1.70;;
3867;SDS011;1949;48.152;11.528;2022-12-29T05:51:50;1.10;;;1.00;;
3867;SDS011;1949;48.152;11.528;2022-12-29T05:54:15;1.83;;;1.17;;
3867;SDS011;1949;48.152;11.528;2022-12-29T05:56:42;3.37;;;1.30;;
3867;SDS011;1949;48.152;11.528;2022-12-29T05:59:08;2.37;;;1.37;;
3867;SDS011;1949;48.152;11.528;2022-12-29T06:01:33;3.37;;;1.70;;
3867;SDS011;1949;48.152;11.528;2022-12-29T06:03:59;2.50;;;1.80;;
3867;SDS011;1949;48.152;11.528;2022-12-29T06:06:25;3.27;;;1.70;;
3867;SDS011;1949;48.152;11.528;2022-12-29T06:08:51;2.03;;;1.50;;
3867;SDS011;1949;48.152;11.528;2022-12-29T06:11:17;1.17;;;1.00;;
3867;SDS011;1949;48.152;11.528;2022-12-29T06:13:43;4.10;;;1.67;;
3867;SDS011;1949;48.152;11.528;2022-12-29T06:16:08;10.23;;;3.73;;
3867;SDS011;1949;48.152;11.528;2022-12-29T06:18:34;9.63;;;1.80;;
3867;SDS011;1949;48.152;11.528;2022-12-29T06:21:03;6.70;;;1.80;;
3867;SDS011;1949;48.152;11.528;2022-12-29T06:23:30;6.07;;;2.10;;
3867;SDS011;1949;48.152;11.528;2022-12-29T06:25:55;4.03;;;2.00;;
3867;SDS011;1949;48.152;11.528;2022-12-29T06:28:22;2.87;;;1.40;;
3867;SDS011;1949;48.152;11.528;2022-12-29T06:30:48;4.50;;;1.50;;
3867;SDS011;1949;48.152;11.528;2022-12-29T06:33:14;1.33;;;0.90;;
3867;SDS011;1949;48.152;11.528;2022-12-29T06:35:41;3.00;;;2.37;;
3867;SDS011;1949;48.152;11.528;2022-12-29T06:38:08;4.20;;;1.40;;
3867;SDS011;1949;48.152;11.528;2022-12-29T06:40:34;4.57;;;1.40;;
3867;SDS011;1949;48.152;11.528;2022-12-29T06:43:00;4.00;;;1.90;;
3867;SDS011;1949;48.152;11.528;2022-12-29T06:45:25;3.30;;;1.33;;
3867;SDS011;1949;48.152;11.528;2022-12-29T06:47:51;4.23;;;2.50;;
3867;SDS011;1949;48.152;11.528;2022-12-29T06:50:17;1.53;;;0.93;;
3867;SDS011;1949;48.152;11.528;2022-12-29T06:52:42;3.07;;;1.90;;
3867;SDS011;1949;48.152;11.528;2022-12-29T06:55:08;5.77;;;2.67;;
3867;SDS011;1949;48.152;11.528;2022-12-29T06:57:34;2.20;;;1.30;;
3867;SDS011;1949;48.152;11.528;2022-12-29T07:00:00;4.83;;;2.40;;
3867;SDS011;1949;48.152;11.528;2022-12-29T07:02:25;4.57;;;1.97;;
3867;SDS011;1949;48.152;11.528;2022-12-29T07:04:51;13.53;;;2.80;;
3867;SDS011;1949;48.152;11.528;2022-12-29T07:07:18;2.80;;;1.13;;
3867;SDS011;1949;48.152;11.528;2022-12-29T07:09:45;3.27;;;1.47;;
3867;SDS011;1949;48.152;11.528;2022-12-29T07:12:11;3.30;;;2.00;;
3867;SDS011;1949;48.152;11.528;2022-12-29T07:14:37;2.40;;;1.30;;
3867;SDS011;1949;48.152;11.528;2022-12-29T07:17:02;4.73;;;2.17;;
3867;SDS011;1949;48.152;11.528;2022-12-29T07:19:34;1.63;;;1.30;;
3867;SDS011;1949;48.152;11.528;2022-12-29T07:21:59;7.40;;;1.53;;
3867;SDS011;1949;48.152;11.528;2022-12-29T07:24:26;3.47;;;1.60;;
3867;SDS011;1949;48.152;11.528;2022-12-29T07:26:52;3.70;;;2.00;;
3867;SDS011;1949;48.152;11.528;2022-12-29T07:29:17;1.73;;;1.40;;
3867;SDS011;1949;48.152;11.528;2022-12-29T07:31:43;2.80;;;1.97;;
3867;SDS011;1949;48.152;11.528;2022-12-29T07:34:10;6.27;;;2.47;;
3867;SDS011;1949;48.152;11.528;2022-12-29T07:36:36;2.33;;;1.47;;
3867;SDS011;1949;48.152;11.528;2022-12-29T07:39:02;3.27;;;1.93;;
3867;SDS011;1949;48.152;11.528;2022-12-29T07:41:28;2.10;;;1.70;;
3867;SDS011;1949;48.152;11.528;2022-12-29T07:43:54;1.90;;;1.60;;
3867;SDS011;1949;48.152;11.528;2022-12-29T07:46:21;3.77;;;1.70;;
3867;SDS011;1949;48.152;11.528;2022-12-29T07:48:47;1.37;;;1.27;;
3867;SDS011;1949;48.152;11.528;2022-12-29T07:51:12;3.33;;;1.77;;
3867;SDS011;1949;48.152;11.528;2022-12-29T07:53:38;2.37;;;1.37;;
3867;SDS011;1949;48.152;11.528;2022-12-29T07:56:04;3.87;;;1.30;;
3867;SDS011;1949;48.152;11.528;2022-12-29T07:58:31;3.27;;;1.70;;
3867;SDS011;1949;48.152;11.528;2022-12-29T08:00:56;1.80;;;1.23;;
3867;SDS011;1949;48.152;11.528;2022-12-29T08:03:22;4.30;;;1.20;;
3867;SDS011;1949;48.152;11.528;2022-12-29T08:05:49;2.50;;;1.53;;
3867;SDS011;1949;48.152;11.528;2022-12-29T08:08:15;4.83;;;1.50;;
3867;SDS011;1949;48.152;11.528;2022-12-29T08:10:41;2.63;;;1.63;;
3867;SDS011;1949;48.152;11.528;2022-12-29T08:13:06;5.50;;;2.23;;
3867;SDS011;1949;48.152;11.528;2022-12-29T08:15:32;1.87;;;1.50;;
3867;SDS011;1949;48.152;11.528;2022-12-29T08:17:58;3.60;;;1.90;;
3867;SDS011;1949;48.152;11.528;2022-12-29T08:20:24;4.00;;;2.10;;
3867;SDS011;1949;48.152;11.528;2022-12-29T08:22:50;3.97;;;2.27;;
3867;SDS011;1949;48.152;11.528;2022-12-29T08:25:17;2.20;;;1.57;;
3867;SDS011;1949;48.152;11.528;2022-12-29T08:27:44;2.23;;;1.47;;
3867;SDS011;1949;48.152;11.528;2022-12-29T08:30:10;2.20;;;1.47;;
3867;SDS011;1949;48.152;11.528;2022-12-29T08:32:36;4.87;;;1.67;;
3867;SDS011;1949;48.152;11.528;2022-12-29T08:35:02;2.63;;;2.00;;
3867;SDS011;1949;48.152;11.528;2022-12-29T08:37:28;1.83;;;1.20;;
3867;SDS011;1949;48.152;11.528;2022-12-29T08:39:53;2.13;;;1.40;;
3867;SDS011;1949;48.152;11.528;2022-12-29T08:42:19;1.33;;;1.07;;
3867;SDS011;1949;48.152;11.528;2022-12-29T08:44:45;2.23;;;1.13;;
3867;SDS011;1949;48.152;11.528;2022-12-29T08:47:11;4.00;;;1.97;;
3867;SDS011;1949;48.152;11.528;2022-12-29T08:49:38;2.80;;;1.30;;
3867;SDS011;1949;48.152;11.528;2022-12-29T08:52:04;1.53;;;1.40;;
3867;SDS011;1949;48.152;11.528;2022-12-29T08:54:30;3.50;;;1.07;;
3867;SDS011;1949;48.152;11.528;2022-12-29T08:56:56;1.47;;;1.00;;
3867;SDS011;1949;48.152;11.528;2022-12-29T08:59:22;5.37;;;2.60;;
3867;SDS011;1949;48.152;11.528;2022-12-29T09:01:48;1.87;;;0.93;;
3867;SDS011;1949;48.152;11.528;2022-12-29T09:04:13;1.43;;;1.20;;
3867;SDS011;1949;48.152;11.528;2022-12-29T09:06:39;1.60;;;1.20;;
3867;SDS011;1949;48.152;11.528;2022-12-29T09:09:05;2.00;;;1.13;;
3867;SDS011;1949;48.152;11.528;2022-12-29T09:11:30;5.33;;;1.90;;
3867;SDS011;1949;48.152;11.528;2022-12-29T09:13:56;1.10;;;0.90;;
3867;SDS011;1949;48.152;11.528;2022-12-29T09:16:23;1.83;;;1.20;;
3867;SDS011;1949;48.152;11.528;2022-12-29T09:18:51;3.00;;;1.27;;
3867;SDS011;1949;48.152;11.528;2022-12-29T09:21:16;1.70;;;1.30;;
3867;SDS011;1949;48.152;11.528;2022-12-29T09:23:42;4.07;;;2.17;;
3867;SDS011;1949;48.152;11.528;2022-12-29T09:26:08;3.90;;;1.77;;
3867;SDS011;1949;48.152;11.528;2022-12-29T09:28:34;1.47;;;1.27;;
3867;SDS011;1949;48.152;11.528;2022-12-29T09:31:00;5.00;;;1.30;;
3867;SDS011;1949;48.152;11.528;2022-12-29T09:33:26;1.47;;;1.20;;
3867;SDS011;1949;48.152;11.528;2022-12-29T09:35:54;3.10;;;1.43;;
3867;SDS011;1949;48.152;11.528;2022-12-29T09:38:22;4.83;;;2.43;;
3867;SDS011;1949;48.152;11.528;2022-12-29T09:40:50;2.73;;;1.30;;
3867;SDS011;1949;48.152;11.528;2022-12-29T09:48:59;2.07;;;1.40;;
3867;SDS011;1949;48.152;11.528;2022-12-29T09:51:41;4.07;;;1.97;;
3867;SDS011;1949;48.152;11.528;2022-12-29T09:54:36;2.03;;;1.20;;
3867;SDS011;1949;48.152;11.528;2022-12-29T09:57:27;2.90;;;1.73;;
3867;SDS011;1949;48.152;11.528;2022-12-29T10:00:00;4.00;;;1.13;;
3867;SDS011;1949;48.152;11.528;2022-12-29T10:04:57;3.57;;;1.63;;
3867;SDS011;1949;48.152;11.528;2022-12-29T10:07:26;4.97;;;2.50;;
3867;SDS011;1949;48.152;11.528;2022-12-29T10:24:17;23.83;;;9.00;;
3867;SDS011;1949;48.152;11.528;2022-12-29T10:26:46;19.17;;;6.97;;
3867;SDS011;1949;48.152;11.528;2022-12-29T10:29:18;29.23;;;10.70;;
3867;SDS011;1949;48.152;11.528;2022-12-29T10:32:04;24.77;;;9.83;;
3867;SDS011;1949;48.152;11.528;2022-12-29T10:34:42;23.00;;;9.10;;
3867;SDS011;1949;48.152;11.528;2022-12-29T10:40:11;2.60;;;2.03;;
3867;SDS011;1949;48.152;11.528;2022-12-29T10:42:46;3.73;;;2.17;;
3867;SDS011;1949;48.152;11.528;2022-12-29T10:45:18;20.13;;;7.90;;
3867;SDS011;1949;48.152;11.528;2022-12-29T10:48:03;9.40;;;3.97;;
3867;SDS011;1949;48.152;11.528;2022-12-29T10:50:39;7.13;;;2.70;;
3867;SDS011;1949;48.152;11.528;2022-12-29T10:53:07;8.53;;;3.43;;
3867;SDS011;1949;48.152;11.528;2022-12-29T10:55:44;9.90;;;4.40;;
3867;SDS011;1949;48.152;11.528;2022-12-29T10:58:12;6.47;;;2.97;;
3867;SDS011;1949;48.152;11.528;2022-12-29T11:00:39;6.57;;;2.90;;
3867;SDS011;1949;48.152;11.528;2022-12-29T11:03:22;3.53;;;1.90;;
3867;SDS011;1949;48.152;11.528;2022-12-29T11:09:08;21.97;;;9.20;;
3867;SDS011;1949;48.152;11.528;2022-12-29T11:11:36;3.10;;;1.90;;
3867;SDS011;1949;48.152;11.528;2022-12-29T11:14:11;1.93;;;1.37;;
3867;SDS011;1949;48.152;11.528;2022-12-29T11:16:39;3.87;;;1.70;;
3867;SDS011;1949;48.152;11.528;2022-12-29T11:19:19;5.70;;;2.33;;
3867;SDS011;1949;48.152;11.528;2022-12-29T11:21:47;5.07;;;2.47;;
3867;SDS011;1949;48.152;11.528;2022-12-29T11:24:22;2.07;;;1.60;;
3867;SDS011;1949;48.152;11.528;2022-12-29T11:26:50;5.40;;;1.90;;
3867;SDS011;1949;48.152;11.528;2022-12-29T11:29:23;7.33;;;3.13;;
3867;SDS011;1949;48.152;11.528;2022-12-29T11:31:57;3.63;;;2.23;;
3867;SDS011;1949;48.152;11.528;2022-12-29T11:34:34;2.80;;;1.17;;
3867;SDS011;1949;48.152;11.528;2022-12-29T11:37:05;2.77;;;1.53;;
3867;SDS011;1949;48.152;11.528;2022-12-29T11:39:39;2.23;;;1.53;;
3867;SDS011;1949;48.152;11.528;2022-12-29T11:42:18;3.50;;;1.83;;
3867;SDS011;1949;48.152;11.528;2022-12-29T11:44:49;8.57;;;3.77;;
3867;SDS011;1949;48.152;11.528;2022-12-29T11:47:28;1.97;;;1.00;;
3867;SDS011;1949;48.152;11.528;2022-12-29T11:49:59;3.00;;;1.57;;
3867;SDS011;1949;48.152;11.528;2022-12-29T11:52:31;3.10;;;1.37;;
3867;SDS011;1949;48.152;11.528;2022-12-29T11:55:00;2.50;;;1.20;;
3867;SDS011;1949;48.152;11.528;2022-12-29T11:57:28;2.40;;;1.57;;
3867;SDS011;1949;48.152;11.528;2022-12-29T11:59:57;8.63;;;1.50;;
3867;SDS011;1949;48.152;11.528;2022-12-29T12:05:41;3.00;;;2.13;;
3867;SDS011;1949;48.152;11.528;2022-12-29T12:07:50;5.13;;;0.80;;
3867;SDS011;1949;48.152;11.528;2022-12-29T12:10:42;2.23;;;1.07;;
3867;SDS011;1949;48.152;11.528;2022-12-29T12:13:14;1.47;;;0.80;;
3867;SDS011;1949;48.152;11.528;2022-12-29T12:15:54;1.23;;;0.80;;
3867;SDS011;1949;48.152;11.528;2022-12-29T12:21:00;2.33;;;1.63;;
3867;SDS011;1949;48.152;11.528;2022-12-29T12:31:17;2.93;;;1.30;;
3867;SDS011;1949;48.152;11.528;2022-12-29T12:34:05;4.60;;;1.80;;
3867;SDS011;1949;48.152;11.528;2022-12-29T12:39:42;4.90;;;2.83;;
3867;SDS011;1949;48.152;11.528;2022-12-29T12:42:25;1.30;;;1.20;;
3867;SDS011;1949;48.152;11.528;2022-12-29T12:58:52;2.73;;;1.70;;
3867;SDS011;1949;48.152;11.528;2022-12-29T13:04:04;1.30;;;0.90;;
3867;SDS011;1949;48.152;11.528;2022-12-29T13:15:11;2.97;;;1.10;;
3867;SDS011;1949;48.152;11.528;2022-12-29T13:17:50;2.87;;;1.77;;
3867;SDS011;1949;48.152;11.528;2022-12-29T13:20:43;1.30;;;1.20;;
3867;SDS011;1949;48.152;11.528;2022-12-29T13:31:30;4.00;;;1.20;;
3867;SDS011;1949;48.152;11.528;2022-12-29T13:36:54;4.70;;;1.40;;
3867;SDS011;1949;48.152;11.528;2022-12-29T13:42:14;1.90;;;1.30;;
3867;SDS011;1949;48.152;11.528;2022-12-29T13:44:45;1.30;;;0.90;;
3867;SDS011;1949;48.152;11.528;2022-12-29T13:50:05;2.10;;;1.47;;
3867;SDS011;1949;48.152;11.528;2022-12-29T13:52:45;1.93;;;1.10;;
3867;SDS011;1949;48.152;11.528;2022-12-29T13:55:32;3.37;;;1.10;;
3867;SDS011;1949;48.152;11.528;2022-12-29T14:01:08;1.83;;;1.00;;
3867;SDS011;1949;48.152;11.528;2022-12-29T14:03:48;1.33;;;1.23;;
3867;SDS011;1949;48.152;11.528;2022-12-29T14:11:51;9.30;;;1.30;;
3867;SDS011;1949;48.152;11.528;2022-12-29T14:14:24;0.70;;;0.70;;
3867;SDS011;1949;48.152;11.528;2022-12-29T14:16:53;4.20;;;1.27;;
3867;SDS011;1949;48.152;11.528;2022-12-29T14:19:29;1.20;;;0.83;;
3867;SDS011;1949;48.152;11.528;2022-12-29T14:22:01;1.80;;;1.13;;
3867;SDS011;1949;48.152;11.528;2022-12-29T14:27:01;4.83;;;1.07;;
3867;SDS011;1949;48.152;11.528;2022-12-29T14:29:48;1.43;;;0.80;;
3867;SDS011;1949;48.152;11.528;2022-12-29T14:34:57;1.33;;;0.87;;
3867;SDS011;1949;48.152;11.528;2022-12-29T14:37:27;1.37;;;0.97;;
3867;SDS011;1949;48.152;11.528;2022-12-29T14:42:51;4.80;;;1.20;;
3867;SDS011;1949;48.152;11.528;2022-12-29T14:47:51;1.50;;;1.10;;
3867;SDS011;1949;48.152;11.528;2022-12-29T14:53:06;1.93;;;0.97;;
3867;SDS011;1949;48.152;11.528;2022-12-29T14:55:55;0.83;;;0.83;;
3867;SDS011;1949;48.152;11.528;2022-12-29T14:58:27;23.27;;;1.73;;
3867;SDS011;1949;48.152;11.528;2022-12-29T15:00:58;11.83;;;2.97;;
3867;SDS011;1949;48.152;11.528;2022-12-29T15:03:29;4.13;;;1.43;;
3867;SDS011;1949;48.152;11.528;2022-12-29T15:06:08;3.20;;;1.97;;
3867;SDS011;1949;48.152;11.528;2022-12-29T15:14:01;7.17;;;1.80;;
3867;SDS011;1949;48.152;11.528;2022-12-29T15:18:58;2.40;;;1.40;;
3867;SDS011;1949;48.152;11.528;2022-12-29T15:21:25;3.10;;;1.50;;
3867;SDS011;1949;48.152;11.528;2022-12-29T15:23:54;7.10;;;1.57;;
3867;SDS011;1949;48.152;11.528;2022-12-29T15:26:20;2.13;;;1.57;;
3867;SDS011;1949;48.152;11.528;2022-12-29T15:28:50;3.37;;;1.63;;
3867;SDS011;1949;48.152;11.528;2022-12-29T15:31:23;4.17;;;1.23;;
3867;SDS011;1949;48.152;11.528;2022-12-29T15:33:51;1.83;;;1.37;;
3867;SDS011;1949;48.152;11.528;2022-12-29T15:36:23;5.33;;;1.80;;
3867;SDS011;1949;48.152;11.528;2022-12-29T15:38:56;4.77;;;1.77;;
3867;SDS011;1949;48.152;11.528;2022-12-29T15:44:39;2.23;;;1.60;;
3867;SDS011;1949;48.152;11.528;2022-12-29T15:47:29;5.90;;;2.47;;
3867;SDS011;1949;48.152;11.528;2022-12-29T15:50:05;2.07;;;1.50;;
3867;SDS011;1949;48.152;11.528;2022-12-29T15:52:39;5.60;;;1.43;;
3867;SDS011;1949;48.152;11.528;2022-12-29T15:55:40;2.63;;;1.70;;
3867;SDS011;1949;48.152;11.528;2022-12-29T15:58:01;2.40;;;1.60;;
3867;SDS011;1949;48.152;11.528;2022-12-29T16:00:32;1.80;;;1.50;;
3867;SDS011;1949;48.152;11.528;2022-12-29T16:03:00;1.30;;;1.00;;
3867;SDS011;1949;48.152;11.528;2022-12-29T16:05:34;4.03;;;2.03;;
3867;SDS011;1949;48.152;11.528;2022-12-29T16:08:02;2.80;;;1.70;;
3867;SDS011;1949;48.152;11.528;2022-12-29T16:10:52;4.60;;;2.30;;
3867;SDS011;1949;48.152;11.528;2022-12-29T16:15:54;4.83;;;1.90;;
3867;SDS011;1949;48.152;11.528;2022-12-29T16:18:29;9.87;;;2.53;;
3867;SDS011;1949;48.152;11.528;2022-12-29T16:21:00;3.63;;;1.97;;
3867;SDS011;1949;48.152;11.528;2022-12-29T16:23:27;2.97;;;2.20;;
3867;SDS011;1949;48.152;11.528;2022-12-29T16:25:56;3.73;;;2.40;;
3867;SDS011;1949;48.152;11.528;2022-12-29T16:28:23;4.67;;;2.00;;
3867;SDS011;1949;48.152;11.528;2022-12-29T16:31:06;4.27;;;1.90;;
3867;SDS011;1949;48.152;11.528;2022-12-29T16:33:55;3.53;;;1.73;;
3867;SDS011;1949;48.152;11.528;2022-12-29T16:39:16;2.60;;;1.70;;
3867;SDS011;1949;48.152;11.528;2022-12-29T16:41:49;4.47;;;1.57;;
3867;SDS011;1949;48.152;11.528;2022-12-29T16:47:01;11.13;;;3.03;;
3867;SDS011;1949;48.152;11.528;2022-12-29T16:49:31;7.47;;;3.47;;
3867;SDS011;1949;48.152;11.528;2022-12-29T16:52:11;4.60;;;2.63;;
3867;SDS011;1949;48.152;11.528;2022-12-29T16:54:39;9.00;;;2.50;;
3867;SDS011;1949;48.152;11.528;2022-12-29T16:57:07;8.00;;;2.60;;
3867;SDS011;1949;48.152;11.528;2022-12-29T16:59:35;14.00;;;5.73;;
3867;SDS011;1949;48.152;11.528;2022-12-29T17:02:12;1.93;;;1.50;;
3867;SDS011;1949;48.152;11.528;2022-12-29T17:04:45;8.00;;;2.60;;
3867;SDS011;1949;48.152;11.528;2022-12-29T17:09:46;2.80;;;1.50;;
3867;SDS011;1949;48.152;11.528;2022-12-29T17:12:17;4.10;;;2.60;;
3867;SDS011;1949;48.152;11.528;2022-12-29T17:20:04;6.70;;;2.03;;
3867;SDS011;1949;48.152;11.528;2022-12-29T17:22:46;15.70;;;4.80;;
3867;SDS011;1949;48.152;11.528;2022-12-29T17:25:17;10.10;;;4.83;;
3867;SDS011;1949;48.152;11.528;2022-12-29T17:27:49;20.23;;;7.33;;
3867;SDS011;1949;48.152;11.528;2022-12-29T17:30:23;17.97;;;8.70;;
3867;SDS011;1949;48.152;11.528;2022-12-29T17:33:09;2.83;;;2.00;;
3867;SDS011;1949;48.152;11.528;2022-12-29T17:35:40;6.07;;;3.53;;
3867;SDS011;1949;48.152;11.528;2022-12-29T17:40:59;7.33;;;3.13;;
3867;SDS011;1949;48.152;11.528;2022-12-29T17:43:27;13.40;;;4.40;;
3867;SDS011;1949;48.152;11.528;2022-12-29T17:48:24;3.57;;;1.50;;
3867;SDS011;1949;48.152;11.528;2022-12-29T17:50:51;5.27;;;2.67;;
3867;SDS011;1949;48.152;11.528;2022-12-29T17:53:22;8.10;;;3.23;;
3867;SDS011;1949;48.152;11.528;2022-12-29T17:55:56;8.90;;;2.80;;
3867;SDS011;1949;48.152;11.528;2022-12-29T17:58:24;8.77;;;3.40;;
3867;SDS011;1949;48.152;11.528;2022-12-29T18:00:58;9.03;;;3.67;;
3867;SDS011;1949;48.152;11.528;2022-12-29T18:03:27;18.23;;;6.60;;
3867;SDS011;1949;48.152;11.528;2022-12-29T18:05:55;29.60;;;7.87;;
3867;SDS011;1949;48.152;11.528;2022-12-29T18:08:22;4.53;;;2.73;;
3867;SDS011;1949;48.152;11.528;2022-12-29T18:10:52;7.60;;;3.00;;
3867;SDS011;1949;48.152;11.528;2022-12-29T18:15:58;6.53;;;3.17;;
3867;SDS011;1949;48.152;11.528;2022-12-29T18:18:25;8.70;;;4.00;;
3867;SDS011;1949;48.152;11.528;2022-12-29T18:20:54;3.70;;;2.30;;
3867;SDS011;1949;48.152;11.528;2022-12-29T18:23:28;6.13;;;3.17;;
3867;SDS011;1949;48.152;11.528;2022-12-29T18:25:58;8.47;;;3.10;;
3867;SDS011;1949;48.152;11.528;2022-12-29T18:28:31;4.10;;;2.53;;
3867;SDS011;1949;48.152;11.528;2022-12-29T18:33:30;3.73;;;2.63;;
3867;SDS011;1949;48.152;11.528;2022-12-29T18:35:57;9.90;;;2.43;;
3867;SDS011;1949;48.152;11.528;2022-12-29T18:38:27;6.53;;;3.40;;
3867;SDS011;1949;48.152;11.528;2022-12-29T18:43:26;6.37;;;3.30;;
3867;SDS011;1949;48.152;11.528;2022-12-29T18:45:53;4.97;;;3.00;;
3867;SDS011;1949;48.152;11.528;2022-12-29T18:48:20;9.70;;;3.83;;
3867;SDS011;1949;48.152;11.528;2022-12-29T18:50:47;8.00;;;3.70;;